sensor_id;sensor_type;location;lat;lon;timestamp;P1;durP1;ratioP1;P2;durP2;ratioP2
58496;SDS011;44284;51.310;16.904;2023-03-01T00:02:03;57.13;;;29.30;;
58496;SDS011;44284;51.310;16.904;2023-03-01T00:04:29;61.67;;;30.30;;
58496;SDS011;44284;51.310;16.904;2023-03-01T00:06:56;56.35;;;29.90;;
58496;SDS011;44284;51.310;16.904;2023-03-01T00:09:22;62.38;;;29.48;;
58496;SDS011;44284;51.310;16.904;2023-03-01T00:11:48;61.05;;;29.40;;
58496;SDS011;44284;51.310;16.904;2023-03-01T00:14:14;59.33;;;29.75;;
58496;SDS011;44284;51.310;16.904;2023-03-01T00:16:44;61.00;;;30.25;;
58496;SDS011;44284;51.310;16.904;2023-03-01T00:19:16;61.72;;;30.45;;
58496;SDS011;44284;51.310;16.904;2023-03-01T00:21:42;58.22;;;31.77;;
58496;SDS011;44284;51.310;16.904;2023-03-01T00:24:08;64.68;;;31.40;;
58496;SDS011;44284;51.310;16.904;2023-03-01T00:26:35;64.20;;;31.83;;
58496;SDS011;44284;51.310;16.904;2023-03-01T00:29:02;65.30;;;31.02;;
58496;SDS011;44284;51.310;16.904;2023-03-01T00:31:29;67.70;;;30.75;;
58496;SDS011;44284;51.310;16.904;2023-03-01T00:33:56;54.67;;;28.35;;
58496;SDS011;44284;51.310;16.904;2023-03-01T00:36:23;58.58;;;29.17;;
58496;SDS011;44284;51.310;16.904;2023-03-01T00:38:50;59.20;;;28.38;;
58496;SDS011;44284;51.310;16.904;2023-03-01T00:41:17;56.33;;;29.08;;
58496;SDS011;44284;51.310;16.904;2023-03-01T00:43:44;56.17;;;29.45;;
58496;SDS011;44284;51.310;16.904;2023-03-01T00:46:11;67.63;;;29.33;;
58496;SDS011;44284;51.310;16.904;2023-03-01T00:48:38;55.10;;;26.85;;
58496;SDS011;44284;51.310;16.904;2023-03-01T00:51:07;55.58;;;28.17;;
58496;SDS011;44284;51.310;16.904;2023-03-01T00:53:34;51.47;;;28.02;;
58496;SDS011;44284;51.310;16.904;2023-03-01T00:56:00;59.78;;;29.58;;
58496;SDS011;44284;51.310;16.904;2023-03-01T00:58:27;57.50;;;28.23;;
58496;SDS011;44284;51.310;16.904;2023-03-01T01:00:53;57.33;;;28.05;;
58496;SDS011;44284;51.310;16.904;2023-03-01T01:03:19;54.05;;;26.92;;
58496;SDS011;44284;51.310;16.904;2023-03-01T01:05:45;53.67;;;26.55;;
58496;SDS011;44284;51.310;16.904;2023-03-01T01:08:11;56.00;;;28.08;;
58496;SDS011;44284;51.310;16.904;2023-03-01T01:10:37;53.13;;;26.88;;
58496;SDS011;44284;51.310;16.904;2023-03-01T01:13:03;54.67;;;27.70;;
58496;SDS011;44284;51.310;16.904;2023-03-01T01:15:33;52.90;;;28.63;;
58496;SDS011;44284;51.310;16.904;2023-03-01T01:17:59;59.08;;;29.27;;
58496;SDS011;44284;51.310;16.904;2023-03-01T01:20:26;59.83;;;29.27;;
58496;SDS011;44284;51.310;16.904;2023-03-01T01:22:52;55.42;;;27.55;;
58496;SDS011;44284;51.310;16.904;2023-03-01T01:25:18;54.42;;;26.73;;
58496;SDS011;44284;51.310;16.904;2023-03-01T01:27:44;56.88;;;28.30;;
58496;SDS011;44284;51.310;16.904;2023-03-01T01:30:11;51.47;;;28.60;;
58496;SDS011;44284;51.310;16.904;2023-03-01T01:32:38;53.40;;;28.73;;
58496;SDS011;44284;51.310;16.904;2023-03-01T01:35:04;62.47;;;32.53;;
58496;SDS011;44284;51.310;16.904;2023-03-01T01:37:30;61.83;;;30.95;;
58496;SDS011;44284;51.310;16.904;2023-03-01T01:39:57;61.63;;;29.95;;
58496;SDS011;44284;51.310;16.904;2023-03-01T01:42:24;58.45;;;28.60;;
58496;SDS011;44284;51.310;16.904;2023-03-01T01:45:15;57.95;;;30.40;;
58496;SDS011;44284;51.310;16.904;2023-03-01T01:47:36;61.20;;;29.58;;
58496;SDS011;44284;51.310;16.904;2023-03-01T01:50:02;61.83;;;30.35;;
58496;SDS011;44284;51.310;16.904;2023-03-01T01:52:32;63.13;;;29.92;;
58496;SDS011;44284;51.310;16.904;2023-03-01T01:57:27;63.80;;;28.42;;
58496;SDS011;44284;51.310;16.904;2023-03-01T01:59:56;61.55;;;29.20;;
58496;SDS011;44284;51.310;16.904;2023-03-01T02:02:23;56.38;;;27.48;;
58496;SDS011;44284;51.310;16.904;2023-03-01T02:04:52;52.78;;;27.00;;
58496;SDS011;44284;51.310;16.904;2023-03-01T02:07:20;58.38;;;28.45;;
58496;SDS011;44284;51.310;16.904;2023-03-01T02:09:47;57.67;;;27.67;;
58496;SDS011;44284;51.310;16.904;2023-03-01T02:12:14;60.08;;;27.42;;
58496;SDS011;44284;51.310;16.904;2023-03-01T02:14:42;50.80;;;25.83;;
58496;SDS011;44284;51.310;16.904;2023-03-01T02:17:09;52.13;;;26.52;;
58496;SDS011;44284;51.310;16.904;2023-03-01T02:19:49;52.50;;;25.55;;
58496;SDS011;44284;51.310;16.904;2023-03-01T02:22:24;52.15;;;25.63;;
58496;SDS011;44284;51.310;16.904;2023-03-01T02:27:17;52.92;;;26.85;;
58496;SDS011;44284;51.310;16.904;2023-03-01T02:29:47;53.60;;;26.38;;
58496;SDS011;44284;51.310;16.904;2023-03-01T02:32:13;56.92;;;24.33;;
58496;SDS011;44284;51.310;16.904;2023-03-01T02:34:40;55.08;;;25.60;;
58496;SDS011;44284;51.310;16.904;2023-03-01T02:37:11;45.22;;;23.83;;
58496;SDS011;44284;51.310;16.904;2023-03-01T02:39:40;48.55;;;23.98;;
58496;SDS011;44284;51.310;16.904;2023-03-01T02:42:09;48.65;;;24.50;;
58496;SDS011;44284;51.310;16.904;2023-03-01T02:44:36;46.58;;;23.50;;
58496;SDS011;44284;51.310;16.904;2023-03-01T02:47:02;48.70;;;24.38;;
58496;SDS011;44284;51.310;16.904;2023-03-01T02:49:30;51.20;;;24.45;;
58496;SDS011;44284;51.310;16.904;2023-03-01T02:54:48;54.30;;;26.98;;
58496;SDS011;44284;51.310;16.904;2023-03-01T02:57:17;54.90;;;25.65;;
58496;SDS011;44284;51.310;16.904;2023-03-01T02:59:43;50.10;;;23.15;;
58496;SDS011;44284;51.310;16.904;2023-03-01T03:02:22;52.35;;;24.45;;
58496;SDS011;44284;51.310;16.904;2023-03-01T03:05:17;51.30;;;25.95;;
58496;SDS011;44284;51.310;16.904;2023-03-01T03:07:44;54.88;;;25.58;;
58496;SDS011;44284;51.310;16.904;2023-03-01T03:10:16;52.40;;;24.02;;
58496;SDS011;44284;51.310;16.904;2023-03-01T03:12:47;51.95;;;25.10;;
58496;SDS011;44284;51.310;16.904;2023-03-01T03:15:14;51.88;;;24.70;;
58496;SDS011;44284;51.310;16.904;2023-03-01T03:17:40;52.92;;;25.40;;
58496;SDS011;44284;51.310;16.904;2023-03-01T03:20:09;50.13;;;24.77;;
58496;SDS011;44284;51.310;16.904;2023-03-01T03:22:40;48.63;;;24.08;;
58496;SDS011;44284;51.310;16.904;2023-03-01T03:25:06;49.17;;;22.77;;
58496;SDS011;44284;51.310;16.904;2023-03-01T03:27:39;44.15;;;22.27;;
58496;SDS011;44284;51.310;16.904;2023-03-01T03:30:06;43.03;;;21.25;;
58496;SDS011;44284;51.310;16.904;2023-03-01T03:32:37;49.67;;;24.63;;
58496;SDS011;44284;51.310;16.904;2023-03-01T03:35:04;55.22;;;23.42;;
58496;SDS011;44284;51.310;16.904;2023-03-01T03:37:39;47.53;;;23.52;;
58496;SDS011;44284;51.310;16.904;2023-03-01T03:40:25;49.58;;;23.88;;
58496;SDS011;44284;51.310;16.904;2023-03-01T03:42:51;46.42;;;22.67;;
58496;SDS011;44284;51.310;16.904;2023-03-01T03:45:17;53.05;;;23.80;;
58496;SDS011;44284;51.310;16.904;2023-03-01T03:47:43;46.38;;;22.20;;
58496;SDS011;44284;51.310;16.904;2023-03-01T03:50:10;50.65;;;22.80;;
58496;SDS011;44284;51.310;16.904;2023-03-01T03:52:37;45.78;;;23.05;;
58496;SDS011;44284;51.310;16.904;2023-03-01T03:55:03;46.97;;;22.25;;
58496;SDS011;44284;51.310;16.904;2023-03-01T03:57:34;49.03;;;22.75;;
58496;SDS011;44284;51.310;16.904;2023-03-01T04:00:00;42.58;;;21.13;;
58496;SDS011;44284;51.310;16.904;2023-03-01T04:02:28;46.88;;;22.13;;
58496;SDS011;44284;51.310;16.904;2023-03-01T04:04:54;42.60;;;21.33;;
58496;SDS011;44284;51.310;16.904;2023-03-01T04:07:20;42.33;;;21.88;;
58496;SDS011;44284;51.310;16.904;2023-03-01T04:09:46;43.58;;;19.98;;
58496;SDS011;44284;51.310;16.904;2023-03-01T04:12:12;42.35;;;21.08;;
58496;SDS011;44284;51.310;16.904;2023-03-01T04:14:39;41.20;;;19.67;;
58496;SDS011;44284;51.310;16.904;2023-03-01T04:17:05;44.58;;;21.80;;
58496;SDS011;44284;51.310;16.904;2023-03-01T04:19:32;45.75;;;21.40;;
58496;SDS011;44284;51.310;16.904;2023-03-01T04:22:01;36.40;;;18.98;;
58496;SDS011;44284;51.310;16.904;2023-03-01T04:24:32;38.28;;;19.67;;
58496;SDS011;44284;51.310;16.904;2023-03-01T04:26:58;39.30;;;18.73;;
58496;SDS011;44284;51.310;16.904;2023-03-01T04:29:24;41.00;;;20.60;;
58496;SDS011;44284;51.310;16.904;2023-03-01T04:31:50;43.10;;;20.38;;
58496;SDS011;44284;51.310;16.904;2023-03-01T04:34:16;39.95;;;19.63;;
58496;SDS011;44284;51.310;16.904;2023-03-01T04:36:42;39.85;;;19.05;;
58496;SDS011;44284;51.310;16.904;2023-03-01T04:39:08;42.25;;;20.45;;
58496;SDS011;44284;51.310;16.904;2023-03-01T04:41:38;38.92;;;18.40;;
58496;SDS011;44284;51.310;16.904;2023-03-01T04:44:04;39.10;;;19.83;;
58496;SDS011;44284;51.310;16.904;2023-03-01T04:46:30;42.15;;;21.02;;
58496;SDS011;44284;51.310;16.904;2023-03-01T04:48:56;37.35;;;18.95;;
58496;SDS011;44284;51.310;16.904;2023-03-01T04:51:23;42.67;;;20.15;;
58496;SDS011;44284;51.310;16.904;2023-03-01T04:53:49;41.83;;;21.85;;
58496;SDS011;44284;51.310;16.904;2023-03-01T04:56:15;38.15;;;20.45;;
58496;SDS011;44284;51.310;16.904;2023-03-01T04:58:43;42.38;;;21.08;;
58496;SDS011;44284;51.310;16.904;2023-03-01T05:01:09;48.88;;;21.30;;
58496;SDS011;44284;51.310;16.904;2023-03-01T05:03:41;44.42;;;21.95;;
58496;SDS011;44284;51.310;16.904;2023-03-01T05:06:07;43.35;;;21.50;;
58496;SDS011;44284;51.310;16.904;2023-03-01T05:08:34;45.45;;;20.98;;
58496;SDS011;44284;51.310;16.904;2023-03-01T05:11:02;43.45;;;20.65;;
58496;SDS011;44284;51.310;16.904;2023-03-01T05:13:28;42.90;;;21.17;;
58496;SDS011;44284;51.310;16.904;2023-03-01T05:15:58;45.83;;;22.55;;
58496;SDS011;44284;51.310;16.904;2023-03-01T05:18:25;46.25;;;20.60;;
58496;SDS011;44284;51.310;16.904;2023-03-01T05:20:52;45.08;;;21.92;;
58496;SDS011;44284;51.310;16.904;2023-03-01T05:23:21;46.33;;;22.45;;
58496;SDS011;44284;51.310;16.904;2023-03-01T05:25:47;45.08;;;24.95;;
58496;SDS011;44284;51.310;16.904;2023-03-01T05:28:14;59.72;;;26.60;;
58496;SDS011;44284;51.310;16.904;2023-03-01T05:30:40;53.08;;;25.17;;
58496;SDS011;44284;51.310;16.904;2023-03-01T05:33:07;53.30;;;26.13;;
58496;SDS011;44284;51.310;16.904;2023-03-01T05:35:41;47.63;;;24.10;;
58496;SDS011;44284;51.310;16.904;2023-03-01T05:38:08;49.78;;;23.02;;
58496;SDS011;44284;51.310;16.904;2023-03-01T05:40:38;47.88;;;23.83;;
58496;SDS011;44284;51.310;16.904;2023-03-01T05:43:04;59.13;;;25.70;;
58496;SDS011;44284;51.310;16.904;2023-03-01T05:45:30;53.40;;;26.15;;
58496;SDS011;44284;51.310;16.904;2023-03-01T05:47:59;49.72;;;25.60;;
58496;SDS011;44284;51.310;16.904;2023-03-01T05:50:27;54.80;;;24.00;;
58496;SDS011;44284;51.310;16.904;2023-03-01T05:53:04;52.45;;;24.95;;
58496;SDS011;44284;51.310;16.904;2023-03-01T05:55:33;53.75;;;24.60;;
58496;SDS011;44284;51.310;16.904;2023-03-01T05:58:04;49.10;;;25.60;;
58496;SDS011;44284;51.310;16.904;2023-03-01T06:00:30;57.30;;;27.02;;
58496;SDS011;44284;51.310;16.904;2023-03-01T06:02:57;54.42;;;26.13;;
58496;SDS011;44284;51.310;16.904;2023-03-01T06:05:23;53.83;;;26.05;;
58496;SDS011;44284;51.310;16.904;2023-03-01T06:07:49;56.92;;;27.52;;
58496;SDS011;44284;51.310;16.904;2023-03-01T06:10:16;54.47;;;25.98;;
58496;SDS011;44284;51.310;16.904;2023-03-01T06:12:42;53.00;;;26.02;;
58496;SDS011;44284;51.310;16.904;2023-03-01T06:15:09;49.60;;;24.63;;
58496;SDS011;44284;51.310;16.904;2023-03-01T06:17:36;55.15;;;27.48;;
58496;SDS011;44284;51.310;16.904;2023-03-01T06:20:03;48.30;;;23.40;;
58496;SDS011;44284;51.310;16.904;2023-03-01T06:22:29;55.80;;;26.70;;
58496;SDS011;44284;51.310;16.904;2023-03-01T06:24:55;60.05;;;27.75;;
58496;SDS011;44284;51.310;16.904;2023-03-01T06:27:21;65.20;;;29.25;;
58496;SDS011;44284;51.310;16.904;2023-03-01T06:29:47;92.45;;;41.33;;
58496;SDS011;44284;51.310;16.904;2023-03-01T06:32:13;82.65;;;37.78;;
58496;SDS011;44284;51.310;16.904;2023-03-01T06:34:40;82.82;;;37.35;;
58496;SDS011;44284;51.310;16.904;2023-03-01T06:37:06;79.05;;;38.88;;
58496;SDS011;44284;51.310;16.904;2023-03-01T06:39:32;74.20;;;40.42;;
58496;SDS011;44284;51.310;16.904;2023-03-01T06:41:58;82.97;;;40.38;;
58496;SDS011;44284;51.310;16.904;2023-03-01T06:44:25;80.82;;;44.15;;
58496;SDS011;44284;51.310;16.904;2023-03-01T06:46:51;89.95;;;45.33;;
58496;SDS011;44284;51.310;16.904;2023-03-01T06:49:17;113.18;;;54.75;;
58496;SDS011;44284;51.310;16.904;2023-03-01T06:51:43;100.85;;;48.55;;
58496;SDS011;44284;51.310;16.904;2023-03-01T06:54:10;94.70;;;46.30;;
58496;SDS011;44284;51.310;16.904;2023-03-01T06:56:36;94.68;;;48.83;;
58496;SDS011;44284;51.310;16.904;2023-03-01T06:59:02;95.00;;;47.40;;
58496;SDS011;44284;51.310;16.904;2023-03-01T07:01:29;142.98;;;63.22;;
58496;SDS011;44284;51.310;16.904;2023-03-01T07:03:55;94.75;;;47.90;;
58496;SDS011;44284;51.310;16.904;2023-03-01T07:06:21;78.30;;;37.40;;
58496;SDS011;44284;51.310;16.904;2023-03-01T07:08:47;79.78;;;37.20;;
58496;SDS011;44284;51.310;16.904;2023-03-01T07:11:14;77.57;;;37.25;;
58496;SDS011;44284;51.310;16.904;2023-03-01T07:13:40;75.85;;;37.30;;
58496;SDS011;44284;51.310;16.904;2023-03-01T07:16:06;64.78;;;31.67;;
58496;SDS011;44284;51.310;16.904;2023-03-01T07:18:32;62.55;;;31.25;;
58496;SDS011;44284;51.310;16.904;2023-03-01T07:21:03;73.97;;;33.03;;
58496;SDS011;44284;51.310;16.904;2023-03-01T07:23:29;69.75;;;33.45;;
58496;SDS011;44284;51.310;16.904;2023-03-01T07:25:55;72.63;;;34.58;;
58496;SDS011;44284;51.310;16.904;2023-03-01T07:28:24;63.10;;;32.88;;
58496;SDS011;44284;51.310;16.904;2023-03-01T07:30:50;62.00;;;32.17;;
58496;SDS011;44284;51.310;16.904;2023-03-01T07:33:17;62.50;;;31.55;;
58496;SDS011;44284;51.310;16.904;2023-03-01T07:35:43;65.47;;;31.63;;
58496;SDS011;44284;51.310;16.904;2023-03-01T07:38:09;95.90;;;46.58;;
58496;SDS011;44284;51.310;16.904;2023-03-01T07:40:35;78.07;;;38.95;;
58496;SDS011;44284;51.310;16.904;2023-03-01T07:43:01;75.03;;;38.53;;
58496;SDS011;44284;51.310;16.904;2023-03-01T07:45:27;68.55;;;33.10;;
58496;SDS011;44284;51.310;16.904;2023-03-01T07:47:54;64.05;;;31.35;;
58496;SDS011;44284;51.310;16.904;2023-03-01T07:50:20;55.35;;;28.08;;
58496;SDS011;44284;51.310;16.904;2023-03-01T07:52:47;59.75;;;29.40;;
58496;SDS011;44284;51.310;16.904;2023-03-01T07:55:13;54.95;;;27.17;;
58496;SDS011;44284;51.310;16.904;2023-03-01T07:57:40;58.58;;;27.33;;
58496;SDS011;44284;51.310;16.904;2023-03-01T08:00:06;65.40;;;30.85;;
58496;SDS011;44284;51.310;16.904;2023-03-01T08:02:32;49.45;;;24.45;;
58496;SDS011;44284;51.310;16.904;2023-03-01T08:04:58;38.17;;;19.33;;
58496;SDS011;44284;51.310;16.904;2023-03-01T08:07:24;32.25;;;17.98;;
58496;SDS011;44284;51.310;16.904;2023-03-01T08:09:50;49.90;;;23.80;;
58496;SDS011;44284;51.310;16.904;2023-03-01T08:12:16;41.78;;;20.55;;
58496;SDS011;44284;51.310;16.904;2023-03-01T08:14:42;38.42;;;18.95;;
58496;SDS011;44284;51.310;16.904;2023-03-01T08:17:08;35.75;;;19.13;;
58496;SDS011;44284;51.310;16.904;2023-03-01T08:19:34;29.90;;;17.15;;
58496;SDS011;44284;51.310;16.904;2023-03-01T08:22:01;35.90;;;19.17;;
58496;SDS011;44284;51.310;16.904;2023-03-01T08:24:27;31.73;;;18.13;;
58496;SDS011;44284;51.310;16.904;2023-03-01T08:26:54;33.80;;;18.40;;
58496;SDS011;44284;51.310;16.904;2023-03-01T08:29:20;37.50;;;18.27;;
58496;SDS011;44284;51.310;16.904;2023-03-01T08:31:47;35.60;;;18.42;;
58496;SDS011;44284;51.310;16.904;2023-03-01T08:34:15;35.80;;;18.17;;
58496;SDS011;44284;51.310;16.904;2023-03-01T08:36:42;46.17;;;20.77;;
58496;SDS011;44284;51.310;16.904;2023-03-01T08:39:09;37.10;;;19.23;;
58496;SDS011;44284;51.310;16.904;2023-03-01T08:41:35;38.60;;;22.20;;
58496;SDS011;44284;51.310;16.904;2023-03-01T08:44:02;40.60;;;21.65;;
58496;SDS011;44284;51.310;16.904;2023-03-01T08:46:35;41.63;;;22.15;;
58496;SDS011;44284;51.310;16.904;2023-03-01T08:49:10;37.55;;;20.42;;
58496;SDS011;44284;51.310;16.904;2023-03-01T08:51:36;43.25;;;21.20;;
58496;SDS011;44284;51.310;16.904;2023-03-01T08:54:06;52.25;;;24.80;;
58496;SDS011;44284;51.310;16.904;2023-03-01T08:56:33;43.72;;;22.33;;
58496;SDS011;44284;51.310;16.904;2023-03-01T08:58:59;43.25;;;22.70;;
58496;SDS011;44284;51.310;16.904;2023-03-01T09:01:25;44.53;;;23.48;;
58496;SDS011;44284;51.310;16.904;2023-03-01T09:03:51;45.60;;;22.10;;
58496;SDS011;44284;51.310;16.904;2023-03-01T09:06:17;45.85;;;24.23;;
58496;SDS011;44284;51.310;16.904;2023-03-01T09:08:45;41.45;;;22.27;;
58496;SDS011;44284;51.310;16.904;2023-03-01T09:11:12;37.35;;;20.08;;
58496;SDS011;44284;51.310;16.904;2023-03-01T09:13:38;41.65;;;21.90;;
58496;SDS011;44284;51.310;16.904;2023-03-01T09:16:06;37.33;;;21.40;;
58496;SDS011;44284;51.310;16.904;2023-03-01T09:18:32;38.63;;;20.55;;
58496;SDS011;44284;51.310;16.904;2023-03-01T09:21:06;43.05;;;21.45;;
58496;SDS011;44284;51.310;16.904;2023-03-01T09:23:35;46.17;;;22.77;;
58496;SDS011;44284;51.310;16.904;2023-03-01T09:26:02;62.83;;;27.73;;
58496;SDS011;44284;51.310;16.904;2023-03-01T09:28:28;37.78;;;19.98;;
58496;SDS011;44284;51.310;16.904;2023-03-01T09:30:57;64.20;;;27.50;;
58496;SDS011;44284;51.310;16.904;2023-03-01T09:33:23;44.78;;;22.05;;
58496;SDS011;44284;51.310;16.904;2023-03-01T09:35:49;35.90;;;19.75;;
58496;SDS011;44284;51.310;16.904;2023-03-01T09:38:15;49.47;;;23.00;;
58496;SDS011;44284;51.310;16.904;2023-03-01T09:40:42;31.95;;;18.00;;
58496;SDS011;44284;51.310;16.904;2023-03-01T09:43:13;34.85;;;18.70;;
58496;SDS011;44284;51.310;16.904;2023-03-01T09:45:41;32.78;;;18.70;;
58496;SDS011;44284;51.310;16.904;2023-03-01T09:48:13;31.58;;;17.85;;
58496;SDS011;44284;51.310;16.904;2023-03-01T09:50:41;31.55;;;18.67;;
58496;SDS011;44284;51.310;16.904;2023-03-01T09:55:51;38.92;;;23.67;;
58496;SDS011;44284;51.310;16.904;2023-03-01T10:04:01;32.97;;;17.73;;
58496;SDS011;44284;51.310;16.904;2023-03-01T10:06:30;37.30;;;19.55;;
58496;SDS011;44284;51.310;16.904;2023-03-01T10:08:57;31.15;;;17.95;;
58496;SDS011;44284;51.310;16.904;2023-03-01T10:11:25;35.50;;;23.08;;
58496;SDS011;44284;51.310;16.904;2023-03-01T10:19:03;30.15;;;17.38;;
58496;SDS011;44284;51.310;16.904;2023-03-01T10:21:31;27.98;;;16.33;;
58496;SDS011;44284;51.310;16.904;2023-03-01T10:24:24;27.50;;;16.67;;
58496;SDS011;44284;51.310;16.904;2023-03-01T10:26:54;25.58;;;15.38;;
58496;SDS011;44284;51.310;16.904;2023-03-01T10:29:34;25.00;;;15.10;;
58496;SDS011;44284;51.310;16.904;2023-03-01T10:32:04;23.70;;;13.27;;
58496;SDS011;44284;51.310;16.904;2023-03-01T10:34:34;21.95;;;13.50;;
58496;SDS011;44284;51.310;16.904;2023-03-01T10:37:09;29.52;;;16.15;;
58496;SDS011;44284;51.310;16.904;2023-03-01T10:39:36;26.58;;;15.13;;
58496;SDS011;44284;51.310;16.904;2023-03-01T10:42:03;28.33;;;16.25;;
58496;SDS011;44284;51.310;16.904;2023-03-01T10:44:37;36.13;;;21.20;;
58496;SDS011;44284;51.310;16.904;2023-03-01T10:47:04;41.53;;;23.17;;
58496;SDS011;44284;51.310;16.904;2023-03-01T10:49:34;34.10;;;21.40;;
58496;SDS011;44284;51.310;16.904;2023-03-01T10:52:19;35.40;;;20.70;;
58496;SDS011;44284;51.310;16.904;2023-03-01T10:54:59;31.75;;;19.33;;
58496;SDS011;44284;51.310;16.904;2023-03-01T10:57:30;27.13;;;16.25;;
58496;SDS011;44284;51.310;16.904;2023-03-01T11:00:01;32.15;;;18.25;;
58496;SDS011;44284;51.310;16.904;2023-03-01T11:02:41;32.78;;;18.70;;
58496;SDS011;44284;51.310;16.904;2023-03-01T11:10:16;34.95;;;18.05;;
58496;SDS011;44284;51.310;16.904;2023-03-01T11:12:43;31.00;;;18.35;;
58496;SDS011;44284;51.310;16.904;2023-03-01T11:15:19;34.05;;;18.67;;
58496;SDS011;44284;51.310;16.904;2023-03-01T11:17:45;35.45;;;19.08;;
58496;SDS011;44284;51.310;16.904;2023-03-01T11:22:42;30.67;;;16.80;;
58496;SDS011;44284;51.310;16.904;2023-03-01T11:25:14;32.15;;;17.92;;
58496;SDS011;44284;51.310;16.904;2023-03-01T11:27:44;30.92;;;17.17;;
58496;SDS011;44284;51.310;16.904;2023-03-01T11:35:28;40.83;;;21.85;;
58496;SDS011;44284;51.310;16.904;2023-03-01T11:40:40;30.63;;;18.10;;
58496;SDS011;44284;51.310;16.904;2023-03-01T11:43:23;30.33;;;17.35;;
58496;SDS011;44284;51.310;16.904;2023-03-01T11:48:40;39.70;;;23.02;;
58496;SDS011;44284;51.310;16.904;2023-03-01T11:51:16;33.88;;;20.20;;
58496;SDS011;44284;51.310;16.904;2023-03-01T11:54:28;33.08;;;19.83;;
58496;SDS011;44284;51.310;16.904;2023-03-01T11:56:39;37.67;;;21.15;;
58496;SDS011;44284;51.310;16.904;2023-03-01T12:06:49;30.92;;;17.45;;
58496;SDS011;44284;51.310;16.904;2023-03-01T12:32:01;27.13;;;16.30;;
58496;SDS011;44284;51.310;16.904;2023-03-01T12:34:42;29.40;;;17.92;;
58496;SDS011;44284;51.310;16.904;2023-03-01T12:37:22;29.50;;;16.33;;
58496;SDS011;44284;51.310;16.904;2023-03-01T12:39:54;25.55;;;14.73;;
58496;SDS011;44284;51.310;16.904;2023-03-01T12:48:04;23.40;;;13.10;;
58496;SDS011;44284;51.310;16.904;2023-03-01T12:50:42;23.55;;;13.57;;
58496;SDS011;44284;51.310;16.904;2023-03-01T12:53:17;27.65;;;15.35;;
58496;SDS011;44284;51.310;16.904;2023-03-01T12:55:45;24.85;;;14.23;;
58496;SDS011;44284;51.310;16.904;2023-03-01T13:01:02;26.83;;;14.98;;
58496;SDS011;44284;51.310;16.904;2023-03-01T13:06:14;24.95;;;14.93;;
58496;SDS011;44284;51.310;16.904;2023-03-01T13:08:49;25.00;;;15.43;;
58496;SDS011;44284;51.310;16.904;2023-03-01T13:11:23;25.67;;;15.00;;
58496;SDS011;44284;51.310;16.904;2023-03-01T13:13:49;24.27;;;14.43;;
58496;SDS011;44284;51.310;16.904;2023-03-01T13:19:17;25.77;;;15.07;;
58496;SDS011;44284;51.310;16.904;2023-03-01T13:21:42;27.15;;;15.43;;
58496;SDS011;44284;51.310;16.904;2023-03-01T13:27:21;24.88;;;14.27;;
58496;SDS011;44284;51.310;16.904;2023-03-01T13:29:53;25.30;;;14.07;;
58496;SDS011;44284;51.310;16.904;2023-03-01T13:32:23;25.67;;;15.07;;
58496;SDS011;44284;51.310;16.904;2023-03-01T13:34:50;27.50;;;16.08;;
58496;SDS011;44284;51.310;16.904;2023-03-01T13:37:23;25.38;;;14.90;;
58496;SDS011;44284;51.310;16.904;2023-03-01T13:39:54;24.08;;;14.25;;
58496;SDS011;44284;51.310;16.904;2023-03-01T13:47:23;24.20;;;13.75;;
58496;SDS011;44284;51.310;16.904;2023-03-01T13:49:52;22.90;;;14.50;;
58496;SDS011;44284;51.310;16.904;2023-03-01T13:54:48;26.00;;;13.85;;
58496;SDS011;44284;51.310;16.904;2023-03-01T13:57:18;25.63;;;16.10;;
58496;SDS011;44284;51.310;16.904;2023-03-01T13:59:50;24.55;;;13.88;;
58496;SDS011;44284;51.310;16.904;2023-03-01T14:02:16;26.70;;;14.88;;
58496;SDS011;44284;51.310;16.904;2023-03-01T14:04:55;35.25;;;22.88;;
58496;SDS011;44284;51.310;16.904;2023-03-01T14:07:22;24.67;;;14.93;;
58496;SDS011;44284;51.310;16.904;2023-03-01T14:09:55;62.35;;;33.22;;
58496;SDS011;44284;51.310;16.904;2023-03-01T14:12:25;47.47;;;25.33;;
58496;SDS011;44284;51.310;16.904;2023-03-01T14:17:59;31.02;;;18.30;;
58496;SDS011;44284;51.310;16.904;2023-03-01T14:20:24;28.58;;;16.13;;
58496;SDS011;44284;51.310;16.904;2023-03-01T14:22:58;26.77;;;15.95;;
58496;SDS011;44284;51.310;16.904;2023-03-01T14:25:29;31.45;;;20.17;;
58496;SDS011;44284;51.310;16.904;2023-03-01T14:30:32;32.80;;;19.52;;
58496;SDS011;44284;51.310;16.904;2023-03-01T14:33:03;31.70;;;16.33;;
58496;SDS011;44284;51.310;16.904;2023-03-01T14:35:31;24.98;;;15.23;;
58496;SDS011;44284;51.310;16.904;2023-03-01T14:37:58;25.63;;;15.68;;
58496;SDS011;44284;51.310;16.904;2023-03-01T14:40:35;26.48;;;15.20;;
58496;SDS011;44284;51.310;16.904;2023-03-01T14:43:09;25.88;;;14.05;;
58496;SDS011;44284;51.310;16.904;2023-03-01T14:45:35;28.67;;;15.35;;
58496;SDS011;44284;51.310;16.904;2023-03-01T14:48:02;22.67;;;14.05;;
58496;SDS011;44284;51.310;16.904;2023-03-01T14:50:33;22.88;;;14.13;;
58496;SDS011;44284;51.310;16.904;2023-03-01T14:53:04;25.25;;;14.05;;
58496;SDS011;44284;51.310;16.904;2023-03-01T14:55:32;27.67;;;15.55;;
58496;SDS011;44284;51.310;16.904;2023-03-01T14:57:59;25.48;;;14.65;;
58496;SDS011;44284;51.310;16.904;2023-03-01T15:00:29;24.75;;;13.43;;
58496;SDS011;44284;51.310;16.904;2023-03-01T15:02:56;25.80;;;15.48;;
58496;SDS011;44284;51.310;16.904;2023-03-01T15:05:25;27.10;;;16.75;;
58496;SDS011;44284;51.310;16.904;2023-03-01T15:07:53;29.80;;;16.55;;
58496;SDS011;44284;51.310;16.904;2023-03-01T15:10:23;28.98;;;16.27;;
58496;SDS011;44284;51.310;16.904;2023-03-01T15:12:49;31.05;;;16.05;;
58496;SDS011;44284;51.310;16.904;2023-03-01T15:15:31;26.67;;;15.57;;
58496;SDS011;44284;51.310;16.904;2023-03-01T15:18:02;21.90;;;14.20;;
58496;SDS011;44284;51.310;16.904;2023-03-01T15:20:28;22.23;;;14.32;;
58496;SDS011;44284;51.310;16.904;2023-03-01T15:22:57;24.38;;;13.93;;
58496;SDS011;44284;51.310;16.904;2023-03-01T15:25:27;24.95;;;14.23;;
58496;SDS011;44284;51.310;16.904;2023-03-01T15:27:53;28.52;;;15.00;;
58496;SDS011;44284;51.310;16.904;2023-03-01T15:30:27;26.25;;;14.45;;
58496;SDS011;44284;51.310;16.904;2023-03-01T15:35:45;29.17;;;15.20;;
58496;SDS011;44284;51.310;16.904;2023-03-01T15:43:48;28.30;;;16.13;;
58496;SDS011;44284;51.310;16.904;2023-03-01T15:46:16;29.58;;;15.07;;
58496;SDS011;44284;51.310;16.904;2023-03-01T15:48:46;28.55;;;15.52;;
58496;SDS011;44284;51.310;16.904;2023-03-01T15:51:14;35.38;;;17.65;;
58496;SDS011;44284;51.310;16.904;2023-03-01T15:53:41;30.27;;;17.00;;
58496;SDS011;44284;51.310;16.904;2023-03-01T15:56:08;31.33;;;16.90;;
58496;SDS011;44284;51.310;16.904;2023-03-01T15:58:34;35.17;;;17.42;;
58496;SDS011;44284;51.310;16.904;2023-03-01T16:01:00;33.35;;;17.02;;
58496;SDS011;44284;51.310;16.904;2023-03-01T16:03:26;29.80;;;16.67;;
58496;SDS011;44284;51.310;16.904;2023-03-01T16:05:53;29.33;;;15.80;;